Shawnee, Wyoming
Current Conditions -  °F | °C
As of 1:53 PM on Thursday 23 Oct 2014 (Local Time) from KDGW Reporting Station
Clear Clear  
Wind Chill: 71°   Ceiling: Unl
Heat Index: 71°   Visibility: 10mi
Dew Point: 25°   Wind: 29mph
Humidity: 18%   Direction: 280°W
Pressure: 30.02"   Gusts: 37mph
Location:  42.75°N, 105.01°W
Report Text: KDGW 231953Z AUTO 28025G32KT 10SM CLR 22/M04 A3002 RMK AO2 PK WND 28034/1900 SLP140 T02171039 $
Loading
Personal Weather Stations






























Interactive Weather Map
Tropical Storm Tracking
New forecast layout! Learn more

10-Day Weather Forecast

Advertisements
Track Severe Weather on mobile